sensor_id;sensor_type;location;lat;lon;timestamp;P1;durP1;ratioP1;P2;durP2;ratioP2
27424;SDS011;15244;49.088;11.886;2023-07-16T00:00:44;2.15;;;2.00;;
27424;SDS011;15244;49.088;11.886;2023-07-16T00:05:53;2.00;;;1.90;;
27424;SDS011;15244;49.088;11.886;2023-07-16T00:10:57;1.95;;;1.73;;
27424;SDS011;15244;49.088;11.886;2023-07-16T00:15:59;2.33;;;2.13;;
27424;SDS011;15244;49.088;11.886;2023-07-16T00:21:01;2.80;;;2.20;;
27424;SDS011;15244;49.088;11.886;2023-07-16T00:26:07;2.47;;;2.28;;
27424;SDS011;15244;49.088;11.886;2023-07-16T00:31:13;2.47;;;2.28;;
27424;SDS011;15244;49.088;11.886;2023-07-16T00:36:17;5.43;;;2.50;;
27424;SDS011;15244;49.088;11.886;2023-07-16T00:41:26;2.55;;;2.00;;
27424;SDS011;15244;49.088;11.886;2023-07-16T00:46:30;5.20;;;2.53;;
27424;SDS011;15244;49.088;11.886;2023-07-16T00:51:34;3.55;;;2.97;;
27424;SDS011;15244;49.088;11.886;2023-07-16T00:56:38;3.88;;;2.55;;
27424;SDS011;15244;49.088;11.886;2023-07-16T01:01:47;4.60;;;2.75;;
27424;SDS011;15244;49.088;11.886;2023-07-16T01:06:50;2.13;;;1.98;;
27424;SDS011;15244;49.088;11.886;2023-07-16T01:11:55;3.30;;;1.95;;
27424;SDS011;15244;49.088;11.886;2023-07-16T01:17:04;2.20;;;2.03;;
27424;SDS011;15244;49.088;11.886;2023-07-16T01:33:06;4.10;;;2.60;;
27424;SDS011;15244;49.088;11.886;2023-07-16T01:38:12;2.40;;;2.20;;
27424;SDS011;15244;49.088;11.886;2023-07-16T01:43:23;3.35;;;2.40;;
27424;SDS011;15244;49.088;11.886;2023-07-16T01:48:33;2.13;;;2.00;;
27424;SDS011;15244;49.088;11.886;2023-07-16T01:53:36;2.30;;;2.20;;
27424;SDS011;15244;49.088;11.886;2023-07-16T01:58:42;2.58;;;2.38;;
27424;SDS011;15244;49.088;11.886;2023-07-16T02:03:43;2.75;;;2.47;;
27424;SDS011;15244;49.088;11.886;2023-07-16T02:08:50;2.33;;;2.22;;
27424;SDS011;15244;49.088;11.886;2023-07-16T02:13:57;4.20;;;2.20;;
27424;SDS011;15244;49.088;11.886;2023-07-16T02:19:02;2.67;;;2.58;;
27424;SDS011;15244;49.088;11.886;2023-07-16T02:24:07;2.92;;;2.42;;
27424;SDS011;15244;49.088;11.886;2023-07-16T02:29:12;2.63;;;2.42;;
27424;SDS011;15244;49.088;11.886;2023-07-16T02:34:14;2.80;;;2.60;;
27424;SDS011;15244;49.088;11.886;2023-07-16T02:39:17;2.40;;;2.20;;
27424;SDS011;15244;49.088;11.886;2023-07-16T02:44:25;2.53;;;2.40;;
27424;SDS011;15244;49.088;11.886;2023-07-16T02:49:26;2.92;;;2.72;;
27424;SDS011;15244;49.088;11.886;2023-07-16T02:54:30;2.28;;;2.10;;
27424;SDS011;15244;49.088;11.886;2023-07-16T02:59:36;2.08;;;1.98;;
27424;SDS011;15244;49.088;11.886;2023-07-16T03:04:40;1.38;;;1.27;;
27424;SDS011;15244;49.088;11.886;2023-07-16T03:09:43;1.42;;;1.33;;
27424;SDS011;15244;49.088;11.886;2023-07-16T03:14:44;1.55;;;1.45;;
27424;SDS011;15244;49.088;11.886;2023-07-16T03:19:49;1.75;;;1.40;;
27424;SDS011;15244;49.088;11.886;2023-07-16T03:24:50;1.52;;;1.42;;
27424;SDS011;15244;49.088;11.886;2023-07-16T03:29:55;1.40;;;1.30;;
27424;SDS011;15244;49.088;11.886;2023-07-16T03:35:01;1.27;;;1.23;;
27424;SDS011;15244;49.088;11.886;2023-07-16T03:40:15;1.00;;;1.00;;
27424;SDS011;15244;49.088;11.886;2023-07-16T03:45:23;0.90;;;0.90;;
27424;SDS011;15244;49.088;11.886;2023-07-16T03:50:27;1.48;;;1.27;;
27424;SDS011;15244;49.088;11.886;2023-07-16T03:55:34;1.33;;;1.23;;
27424;SDS011;15244;49.088;11.886;2023-07-16T04:00:36;1.27;;;1.20;;
27424;SDS011;15244;49.088;11.886;2023-07-16T04:05:40;0.93;;;0.90;;
27424;SDS011;15244;49.088;11.886;2023-07-16T04:10:46;1.30;;;1.20;;
27424;SDS011;15244;49.088;11.886;2023-07-16T04:15:48;1.33;;;1.23;;
27424;SDS011;15244;49.088;11.886;2023-07-16T04:20:54;2.25;;;1.40;;
27424;SDS011;15244;49.088;11.886;2023-07-16T04:25:58;1.20;;;1.20;;
27424;SDS011;15244;49.088;11.886;2023-07-16T04:31:03;1.40;;;1.30;;
27424;SDS011;15244;49.088;11.886;2023-07-16T04:36:04;1.33;;;1.23;;
27424;SDS011;15244;49.088;11.886;2023-07-16T04:41:16;1.10;;;1.00;;
27424;SDS011;15244;49.088;11.886;2023-07-16T04:46:20;2.35;;;1.70;;
27424;SDS011;15244;49.088;11.886;2023-07-16T04:51:24;1.67;;;1.30;;
27424;SDS011;15244;49.088;11.886;2023-07-16T04:56:26;1.08;;;0.85;;
27424;SDS011;15244;49.088;11.886;2023-07-16T05:01:32;1.00;;;1.00;;
27424;SDS011;15244;49.088;11.886;2023-07-16T05:06:36;1.10;;;1.10;;
27424;SDS011;15244;49.088;11.886;2023-07-16T05:11:43;1.30;;;1.20;;
27424;SDS011;15244;49.088;11.886;2023-07-16T05:16:49;1.33;;;0.90;;
27424;SDS011;15244;49.088;11.886;2023-07-16T05:21:51;1.10;;;1.00;;
27424;SDS011;15244;49.088;11.886;2023-07-16T05:27:01;1.27;;;0.85;;
27424;SDS011;15244;49.088;11.886;2023-07-16T05:32:03;1.42;;;1.10;;
27424;SDS011;15244;49.088;11.886;2023-07-16T05:42:22;1.90;;;1.20;;
27424;SDS011;15244;49.088;11.886;2023-07-16T05:47:29;3.60;;;0.90;;
27424;SDS011;15244;49.088;11.886;2023-07-16T05:52:31;2.05;;;0.85;;
27424;SDS011;15244;49.088;11.886;2023-07-16T05:57:38;1.30;;;1.20;;
27424;SDS011;15244;49.088;11.886;2023-07-16T06:02:44;5.68;;;1.05;;
27424;SDS011;15244;49.088;11.886;2023-07-16T06:07:45;0.95;;;0.82;;
27424;SDS011;15244;49.088;11.886;2023-07-16T06:12:48;0.90;;;0.90;;
27424;SDS011;15244;49.088;11.886;2023-07-16T06:17:50;0.95;;;0.80;;
27424;SDS011;15244;49.088;11.886;2023-07-16T06:22:54;1.33;;;1.23;;
27424;SDS011;15244;49.088;11.886;2023-07-16T06:27:56;0.77;;;0.77;;
27424;SDS011;15244;49.088;11.886;2023-07-16T06:33:05;1.02;;;0.80;;
27424;SDS011;15244;49.088;11.886;2023-07-16T06:38:11;1.77;;;0.90;;
27424;SDS011;15244;49.088;11.886;2023-07-16T06:43:13;2.88;;;0.90;;
27424;SDS011;15244;49.088;11.886;2023-07-16T06:48:20;3.95;;;1.50;;
27424;SDS011;15244;49.088;11.886;2023-07-16T06:53:28;1.50;;;1.02;;
27424;SDS011;15244;49.088;11.886;2023-07-16T06:58:30;1.85;;;1.17;;
27424;SDS011;15244;49.088;11.886;2023-07-16T07:03:35;1.85;;;1.05;;
27424;SDS011;15244;49.088;11.886;2023-07-16T07:08:44;1.20;;;1.13;;
27424;SDS011;15244;49.088;11.886;2023-07-16T07:13:46;2.10;;;1.00;;
27424;SDS011;15244;49.088;11.886;2023-07-16T07:18:50;1.58;;;0.90;;
27424;SDS011;15244;49.088;11.886;2023-07-16T07:23:51;3.45;;;1.00;;
27424;SDS011;15244;49.088;11.886;2023-07-16T07:28:55;1.85;;;1.00;;
27424;SDS011;15244;49.088;11.886;2023-07-16T07:34:00;1.08;;;0.98;;
27424;SDS011;15244;49.088;11.886;2023-07-16T07:39:02;1.90;;;1.13;;
27424;SDS011;15244;49.088;11.886;2023-07-16T07:44:08;1.13;;;1.10;;
27424;SDS011;15244;49.088;11.886;2023-07-16T07:49:13;2.20;;;1.25;;
27424;SDS011;15244;49.088;11.886;2023-07-16T07:54:15;2.50;;;1.02;;
27424;SDS011;15244;49.088;11.886;2023-07-16T07:59:21;1.60;;;1.00;;
27424;SDS011;15244;49.088;11.886;2023-07-16T08:04:25;2.75;;;1.05;;
27424;SDS011;15244;49.088;11.886;2023-07-16T08:09:35;1.83;;;1.13;;
27424;SDS011;15244;49.088;11.886;2023-07-16T08:14:43;1.30;;;1.05;;
27424;SDS011;15244;49.088;11.886;2023-07-16T08:19:52;1.77;;;1.10;;
27424;SDS011;15244;49.088;11.886;2023-07-16T08:24:54;1.55;;;1.17;;
27424;SDS011;15244;49.088;11.886;2023-07-16T08:29:55;2.05;;;1.30;;
27424;SDS011;15244;49.088;11.886;2023-07-16T08:34:59;1.20;;;1.10;;
27424;SDS011;15244;49.088;11.886;2023-07-16T08:40:03;2.10;;;1.25;;
27424;SDS011;15244;49.088;11.886;2023-07-16T08:45:12;5.93;;;1.77;;
27424;SDS011;15244;49.088;11.886;2023-07-16T08:50:15;1.17;;;1.17;;
27424;SDS011;15244;49.088;11.886;2023-07-16T08:55:18;2.33;;;1.25;;
27424;SDS011;15244;49.088;11.886;2023-07-16T09:00:22;1.60;;;1.40;;
27424;SDS011;15244;49.088;11.886;2023-07-16T09:05:35;2.80;;;1.55;;
27424;SDS011;15244;49.088;11.886;2023-07-16T09:10:41;1.55;;;1.25;;
27424;SDS011;15244;49.088;11.886;2023-07-16T09:15:50;2.67;;;1.45;;
27424;SDS011;15244;49.088;11.886;2023-07-16T09:25:59;4.10;;;1.27;;
27424;SDS011;15244;49.088;11.886;2023-07-16T09:31:05;1.73;;;1.33;;
27424;SDS011;15244;49.088;11.886;2023-07-16T09:36:11;2.88;;;1.35;;
27424;SDS011;15244;49.088;11.886;2023-07-16T09:41:27;1.88;;;1.23;;
27424;SDS011;15244;49.088;11.886;2023-07-16T09:46:30;2.35;;;1.10;;
27424;SDS011;15244;49.088;11.886;2023-07-16T09:51:35;2.22;;;1.23;;
27424;SDS011;15244;49.088;11.886;2023-07-16T09:56:39;1.20;;;1.10;;
27424;SDS011;15244;49.088;11.886;2023-07-16T10:01:47;2.67;;;1.02;;
27424;SDS011;15244;49.088;11.886;2023-07-16T10:07:00;1.60;;;1.25;;
27424;SDS011;15244;49.088;11.886;2023-07-16T10:17:23;1.27;;;1.17;;
27424;SDS011;15244;49.088;11.886;2023-07-16T10:22:36;2.65;;;1.10;;
27424;SDS011;15244;49.088;11.886;2023-07-16T10:27:39;2.53;;;1.20;;
27424;SDS011;15244;49.088;11.886;2023-07-16T10:32:50;2.28;;;1.60;;
27424;SDS011;15244;49.088;11.886;2023-07-16T10:37:54;1.60;;;1.15;;
27424;SDS011;15244;49.088;11.886;2023-07-16T10:42:55;1.50;;;1.33;;
27424;SDS011;15244;49.088;11.886;2023-07-16T10:47:58;2.15;;;1.38;;
27424;SDS011;15244;49.088;11.886;2023-07-16T10:53:02;1.50;;;1.40;;
27424;SDS011;15244;49.088;11.886;2023-07-16T10:58:06;3.55;;;1.48;;
27424;SDS011;15244;49.088;11.886;2023-07-16T11:03:14;1.50;;;1.33;;
27424;SDS011;15244;49.088;11.886;2023-07-16T11:08:21;3.55;;;1.55;;
27424;SDS011;15244;49.088;11.886;2023-07-16T11:13:32;1.40;;;1.30;;
27424;SDS011;15244;49.088;11.886;2023-07-16T11:18:34;3.15;;;1.55;;
27424;SDS011;15244;49.088;11.886;2023-07-16T11:23:35;1.60;;;1.50;;
27424;SDS011;15244;49.088;11.886;2023-07-16T11:28:38;1.35;;;1.23;;
27424;SDS011;15244;49.088;11.886;2023-07-16T11:33:47;1.75;;;1.45;;
27424;SDS011;15244;49.088;11.886;2023-07-16T11:38:56;2.63;;;1.33;;
27424;SDS011;15244;49.088;11.886;2023-07-16T11:44:03;1.70;;;1.60;;
27424;SDS011;15244;49.088;11.886;2023-07-16T11:49:10;2.72;;;1.65;;
27424;SDS011;15244;49.088;11.886;2023-07-16T11:54:13;1.63;;;1.52;;
27424;SDS011;15244;49.088;11.886;2023-07-16T11:59:17;1.55;;;1.45;;
27424;SDS011;15244;49.088;11.886;2023-07-16T12:04:21;1.65;;;1.55;;
27424;SDS011;15244;49.088;11.886;2023-07-16T12:09:26;1.60;;;1.50;;
27424;SDS011;15244;49.088;11.886;2023-07-16T12:14:37;1.42;;;1.33;;
27424;SDS011;15244;49.088;11.886;2023-07-16T12:19:41;1.80;;;1.70;;
27424;SDS011;15244;49.088;11.886;2023-07-16T12:24:45;1.58;;;1.48;;
27424;SDS011;15244;49.088;11.886;2023-07-16T12:29:52;3.13;;;1.50;;
27424;SDS011;15244;49.088;11.886;2023-07-16T12:34:56;1.50;;;1.40;;
27424;SDS011;15244;49.088;11.886;2023-07-16T12:40:00;1.70;;;1.60;;
27424;SDS011;15244;49.088;11.886;2023-07-16T12:45:02;1.40;;;1.30;;
27424;SDS011;15244;49.088;11.886;2023-07-16T12:50:04;1.30;;;1.20;;
27424;SDS011;15244;49.088;11.886;2023-07-16T12:55:06;2.83;;;1.58;;
27424;SDS011;15244;49.088;11.886;2023-07-16T13:00:08;1.45;;;1.25;;
27424;SDS011;15244;49.088;11.886;2023-07-16T13:05:19;1.40;;;1.30;;
27424;SDS011;15244;49.088;11.886;2023-07-16T13:10:22;2.78;;;1.48;;
27424;SDS011;15244;49.088;11.886;2023-07-16T13:15:24;1.58;;;1.48;;
27424;SDS011;15244;49.088;11.886;2023-07-16T13:20:35;1.40;;;1.30;;
27424;SDS011;15244;49.088;11.886;2023-07-16T13:25:37;1.55;;;1.42;;
27424;SDS011;15244;49.088;11.886;2023-07-16T13:30:42;1.40;;;1.30;;
27424;SDS011;15244;49.088;11.886;2023-07-16T13:35:45;1.25;;;1.15;;
27424;SDS011;15244;49.088;11.886;2023-07-16T13:40:56;1.30;;;1.20;;
27424;SDS011;15244;49.088;11.886;2023-07-16T13:45:59;1.30;;;1.20;;
27424;SDS011;15244;49.088;11.886;2023-07-16T13:51:03;1.45;;;1.33;;
27424;SDS011;15244;49.088;11.886;2023-07-16T13:56:04;1.40;;;1.30;;
27424;SDS011;15244;49.088;11.886;2023-07-16T14:01:11;1.50;;;1.20;;
27424;SDS011;15244;49.088;11.886;2023-07-16T14:06:18;1.33;;;1.23;;
27424;SDS011;15244;49.088;11.886;2023-07-16T14:11:20;1.20;;;1.10;;
27424;SDS011;15244;49.088;11.886;2023-07-16T14:16:22;1.20;;;1.20;;
27424;SDS011;15244;49.088;11.886;2023-07-16T14:21:24;1.15;;;1.13;;
27424;SDS011;15244;49.088;11.886;2023-07-16T14:26:27;1.40;;;1.10;;
27424;SDS011;15244;49.088;11.886;2023-07-16T14:31:28;1.20;;;1.10;;
27424;SDS011;15244;49.088;11.886;2023-07-16T14:36:32;1.77;;;1.25;;
27424;SDS011;15244;49.088;11.886;2023-07-16T14:41:34;1.80;;;0.88;;
27424;SDS011;15244;49.088;11.886;2023-07-16T14:46:35;1.30;;;1.17;;
27424;SDS011;15244;49.088;11.886;2023-07-16T14:51:41;1.90;;;1.13;;
27424;SDS011;15244;49.088;11.886;2023-07-16T14:56:45;0.90;;;0.90;;
27424;SDS011;15244;49.088;11.886;2023-07-16T15:01:53;1.30;;;1.20;;
27424;SDS011;15244;49.088;11.886;2023-07-16T15:06:54;1.27;;;1.20;;
27424;SDS011;15244;49.088;11.886;2023-07-16T15:12:04;1.30;;;1.20;;
27424;SDS011;15244;49.088;11.886;2023-07-16T15:17:06;1.40;;;1.30;;
27424;SDS011;15244;49.088;11.886;2023-07-16T15:22:08;2.08;;;1.40;;
27424;SDS011;15244;49.088;11.886;2023-07-16T15:27:11;2.08;;;1.45;;
27424;SDS011;15244;49.088;11.886;2023-07-16T15:32:15;1.33;;;1.33;;
27424;SDS011;15244;49.088;11.886;2023-07-16T15:37:19;1.10;;;1.10;;
27424;SDS011;15244;49.088;11.886;2023-07-16T15:42:21;3.28;;;1.27;;
27424;SDS011;15244;49.088;11.886;2023-07-16T15:47:24;1.30;;;1.20;;
27424;SDS011;15244;49.088;11.886;2023-07-16T15:52:33;1.60;;;1.50;;
27424;SDS011;15244;49.088;11.886;2023-07-16T15:57:35;2.78;;;1.33;;
27424;SDS011;15244;49.088;11.886;2023-07-16T16:02:45;1.50;;;1.40;;
27424;SDS011;15244;49.088;11.886;2023-07-16T16:13:17;1.50;;;1.20;;
27424;SDS011;15244;49.088;11.886;2023-07-16T16:18:20;1.13;;;1.02;;
27424;SDS011;15244;49.088;11.886;2023-07-16T16:23:27;1.02;;;1.02;;
27424;SDS011;15244;49.088;11.886;2023-07-16T16:28:29;1.50;;;1.40;;
27424;SDS011;15244;49.088;11.886;2023-07-16T16:33:34;1.70;;;1.60;;
27424;SDS011;15244;49.088;11.886;2023-07-16T16:38:38;1.40;;;1.30;;
27424;SDS011;15244;49.088;11.886;2023-07-16T16:43:45;1.73;;;1.60;;
27424;SDS011;15244;49.088;11.886;2023-07-16T16:48:47;1.10;;;1.10;;
27424;SDS011;15244;49.088;11.886;2023-07-16T16:53:48;1.40;;;1.30;;
27424;SDS011;15244;49.088;11.886;2023-07-16T16:58:55;1.77;;;1.40;;
27424;SDS011;15244;49.088;11.886;2023-07-16T17:03:57;1.38;;;1.27;;
27424;SDS011;15244;49.088;11.886;2023-07-16T17:09:01;1.40;;;1.30;;
27424;SDS011;15244;49.088;11.886;2023-07-16T17:14:08;1.95;;;1.30;;
27424;SDS011;15244;49.088;11.886;2023-07-16T17:19:12;1.40;;;1.25;;
27424;SDS011;15244;49.088;11.886;2023-07-16T17:24:13;1.17;;;1.17;;
27424;SDS011;15244;49.088;11.886;2023-07-16T17:29:15;1.52;;;1.42;;
27424;SDS011;15244;49.088;11.886;2023-07-16T17:34:17;1.58;;;1.48;;
27424;SDS011;15244;49.088;11.886;2023-07-16T17:39:18;1.63;;;1.52;;
27424;SDS011;15244;49.088;11.886;2023-07-16T17:44:23;1.40;;;1.30;;
27424;SDS011;15244;49.088;11.886;2023-07-16T17:49:32;1.20;;;1.10;;
27424;SDS011;15244;49.088;11.886;2023-07-16T17:54:39;1.17;;;1.17;;
27424;SDS011;15244;49.088;11.886;2023-07-16T17:59:49;1.15;;;1.10;;
27424;SDS011;15244;49.088;11.886;2023-07-16T18:04:55;2.25;;;1.38;;
27424;SDS011;15244;49.088;11.886;2023-07-16T18:10:10;1.33;;;1.23;;
27424;SDS011;15244;49.088;11.886;2023-07-16T18:15:21;1.40;;;1.30;;
27424;SDS011;15244;49.088;11.886;2023-07-16T18:20:25;1.98;;;1.55;;
27424;SDS011;15244;49.088;11.886;2023-07-16T18:25:29;2.65;;;1.38;;
27424;SDS011;15244;49.088;11.886;2023-07-16T18:30:32;2.67;;;1.38;;
27424;SDS011;15244;49.088;11.886;2023-07-16T18:35:37;1.38;;;1.27;;
27424;SDS011;15244;49.088;11.886;2023-07-16T18:40:42;2.15;;;1.35;;
27424;SDS011;15244;49.088;11.886;2023-07-16T18:45:48;1.75;;;1.42;;
27424;SDS011;15244;49.088;11.886;2023-07-16T18:50:51;1.45;;;1.35;;
27424;SDS011;15244;49.088;11.886;2023-07-16T18:55:58;1.27;;;1.17;;
27424;SDS011;15244;49.088;11.886;2023-07-16T19:01:05;1.38;;;1.30;;
27424;SDS011;15244;49.088;11.886;2023-07-16T19:06:14;1.70;;;1.52;;
27424;SDS011;15244;49.088;11.886;2023-07-16T19:11:22;2.53;;;1.30;;
27424;SDS011;15244;49.088;11.886;2023-07-16T19:16:34;1.92;;;1.65;;
27424;SDS011;15244;49.088;11.886;2023-07-16T19:21:35;1.77;;;1.60;;
27424;SDS011;15244;49.088;11.886;2023-07-16T19:26:44;2.17;;;1.50;;
27424;SDS011;15244;49.088;11.886;2023-07-16T19:31:46;1.83;;;1.73;;
27424;SDS011;15244;49.088;11.886;2023-07-16T19:36:49;1.45;;;1.35;;
27424;SDS011;15244;49.088;11.886;2023-07-16T19:41:51;1.45;;;1.35;;
27424;SDS011;15244;49.088;11.886;2023-07-16T19:46:54;2.88;;;1.40;;
27424;SDS011;15244;49.088;11.886;2023-07-16T19:51:59;2.08;;;1.50;;
27424;SDS011;15244;49.088;11.886;2023-07-16T19:57:03;1.20;;;1.10;;
27424;SDS011;15244;49.088;11.886;2023-07-16T20:02:05;1.45;;;1.35;;
27424;SDS011;15244;49.088;11.886;2023-07-16T20:07:11;1.70;;;1.60;;
27424;SDS011;15244;49.088;11.886;2023-07-16T20:12:15;1.38;;;1.27;;
27424;SDS011;15244;49.088;11.886;2023-07-16T20:17:17;1.40;;;1.30;;
27424;SDS011;15244;49.088;11.886;2023-07-16T20:22:21;1.73;;;1.60;;
27424;SDS011;15244;49.088;11.886;2023-07-16T20:27:28;1.80;;;1.70;;
27424;SDS011;15244;49.088;11.886;2023-07-16T20:32:29;1.88;;;1.75;;
27424;SDS011;15244;49.088;11.886;2023-07-16T20:37:33;1.08;;;1.08;;
27424;SDS011;15244;49.088;11.886;2023-07-16T20:42:35;1.30;;;1.20;;
27424;SDS011;15244;49.088;11.886;2023-07-16T20:47:40;2.55;;;1.20;;
27424;SDS011;15244;49.088;11.886;2023-07-16T20:52:49;1.65;;;1.38;;
27424;SDS011;15244;49.088;11.886;2023-07-16T20:57:57;1.70;;;1.60;;
27424;SDS011;15244;49.088;11.886;2023-07-16T21:02:59;1.40;;;1.40;;
27424;SDS011;15244;49.088;11.886;2023-07-16T21:13:18;1.70;;;1.55;;
27424;SDS011;15244;49.088;11.886;2023-07-16T21:18:21;1.50;;;1.40;;
27424;SDS011;15244;49.088;11.886;2023-07-16T21:23:26;1.92;;;1.58;;
27424;SDS011;15244;49.088;11.886;2023-07-16T21:28:29;1.55;;;1.45;;
27424;SDS011;15244;49.088;11.886;2023-07-16T21:33:31;2.88;;;1.55;;
27424;SDS011;15244;49.088;11.886;2023-07-16T21:38:32;1.63;;;1.50;;
27424;SDS011;15244;49.088;11.886;2023-07-16T21:43:34;2.35;;;1.70;;
27424;SDS011;15244;49.088;11.886;2023-07-16T21:48:35;1.45;;;1.35;;
27424;SDS011;15244;49.088;11.886;2023-07-16T21:53:37;1.40;;;1.30;;
27424;SDS011;15244;49.088;11.886;2023-07-16T21:58:39;2.67;;;1.75;;
27424;SDS011;15244;49.088;11.886;2023-07-16T22:03:48;1.42;;;1.33;;
27424;SDS011;15244;49.088;11.886;2023-07-16T22:08:51;1.63;;;1.50;;
27424;SDS011;15244;49.088;11.886;2023-07-16T22:13:55;1.60;;;1.50;;
27424;SDS011;15244;49.088;11.886;2023-07-16T22:24:31;1.80;;;1.70;;
27424;SDS011;15244;49.088;11.886;2023-07-16T22:29:35;1.88;;;1.30;;
27424;SDS011;15244;49.088;11.886;2023-07-16T22:34:40;1.75;;;1.40;;
27424;SDS011;15244;49.088;11.886;2023-07-16T22:39:42;1.88;;;1.77;;
27424;SDS011;15244;49.088;11.886;2023-07-16T22:44:49;2.40;;;1.63;;
27424;SDS011;15244;49.088;11.886;2023-07-16T22:49:50;1.77;;;1.67;;
27424;SDS011;15244;49.088;11.886;2023-07-16T22:54:53;2.45;;;1.52;;
27424;SDS011;15244;49.088;11.886;2023-07-16T22:59:59;2.35;;;1.63;;
27424;SDS011;15244;49.088;11.886;2023-07-16T23:05:09;1.75;;;1.65;;
27424;SDS011;15244;49.088;11.886;2023-07-16T23:10:18;1.67;;;1.15;;
27424;SDS011;15244;49.088;11.886;2023-07-16T23:15:20;2.30;;;1.40;;
27424;SDS011;15244;49.088;11.886;2023-07-16T23:20:21;3.05;;;1.65;;
27424;SDS011;15244;49.088;11.886;2023-07-16T23:25:23;1.85;;;1.73;;
27424;SDS011;15244;49.088;11.886;2023-07-16T23:30:30;1.60;;;1.50;;
27424;SDS011;15244;49.088;11.886;2023-07-16T23:35:39;1.45;;;1.40;;
27424;SDS011;15244;49.088;11.886;2023-07-16T23:40:40;1.80;;;1.70;;
27424;SDS011;15244;49.088;11.886;2023-07-16T23:45:42;1.40;;;1.30;;
27424;SDS011;15244;49.088;11.886;2023-07-16T23:50:47;1.25;;;1.25;;
27424;SDS011;15244;49.088;11.886;2023-07-16T23:55:53;1.48;;;1.38;;
